sensor_id;sensor_type;location;lat;lon;timestamp;pressure;altitude;pressure_sealevel;temperature;humidity
28630;BME280;15817;42.130;24.762;2022-08-19T00:01:43;99296.66;;;28.87;43.55
28630;BME280;15817;42.130;24.762;2022-08-19T00:04:11;99303.44;;;28.83;43.99
28630;BME280;15817;42.130;24.762;2022-08-19T00:06:39;99304.44;;;28.81;44.20
28630;BME280;15817;42.130;24.762;2022-08-19T00:09:07;99298.59;;;28.75;44.48
28630;BME280;15817;42.130;24.762;2022-08-19T00:11:33;99299.41;;;28.66;44.83
28630;BME280;15817;42.130;24.762;2022-08-19T00:14:01;99302.03;;;28.67;44.79
28630;BME280;15817;42.130;24.762;2022-08-19T00:16:28;99300.03;;;28.69;44.55
28630;BME280;15817;42.130;24.762;2022-08-19T00:18:54;99284.69;;;28.57;45.01
28630;BME280;15817;42.130;24.762;2022-08-19T00:21:21;99294.91;;;28.55;45.39
28630;BME280;15817;42.130;24.762;2022-08-19T00:23:47;99292.56;;;28.51;45.40
28630;BME280;15817;42.130;24.762;2022-08-19T00:26:13;99293.22;;;28.33;46.38
28630;BME280;15817;42.130;24.762;2022-08-19T00:28:40;99297.75;;;28.23;46.79
28630;BME280;15817;42.130;24.762;2022-08-19T00:31:07;99295.41;;;28.19;47.20
28630;BME280;15817;42.130;24.762;2022-08-19T00:33:33;99291.69;;;28.20;47.40
28630;BME280;15817;42.130;24.762;2022-08-19T00:36:04;99286.34;;;28.18;47.31
28630;BME280;15817;42.130;24.762;2022-08-19T00:38:32;99281.22;;;28.25;47.33
28630;BME280;15817;42.130;24.762;2022-08-19T00:40:59;99285.56;;;28.16;47.69
28630;BME280;15817;42.130;24.762;2022-08-19T00:43:28;99280.34;;;28.03;47.77
28630;BME280;15817;42.130;24.762;2022-08-19T00:45:54;99270.25;;;27.83;48.71
28630;BME280;15817;42.130;24.762;2022-08-19T00:48:20;99272.41;;;27.80;48.76
28630;BME280;15817;42.130;24.762;2022-08-19T00:50:48;99267.19;;;27.77;48.84
28630;BME280;15817;42.130;24.762;2022-08-19T00:53:19;99259.38;;;27.72;49.02
28630;BME280;15817;42.130;24.762;2022-08-19T00:55:47;99257.81;;;27.58;49.28
28630;BME280;15817;42.130;24.762;2022-08-19T00:58:16;99259.78;;;27.67;49.08
28630;BME280;15817;42.130;24.762;2022-08-19T01:00:44;99249.19;;;27.74;49.30
28630;BME280;15817;42.130;24.762;2022-08-19T01:03:17;99248.31;;;27.73;48.90
28630;BME280;15817;42.130;24.762;2022-08-19T01:05:45;99253.03;;;27.71;49.01
28630;BME280;15817;42.130;24.762;2022-08-19T01:08:12;99254.31;;;27.67;49.11
28630;BME280;15817;42.130;24.762;2022-08-19T01:10:43;99254.47;;;27.66;49.60
28630;BME280;15817;42.130;24.762;2022-08-19T01:13:11;99256.13;;;27.57;49.62
28630;BME280;15817;42.130;24.762;2022-08-19T01:15:44;99252.25;;;27.49;49.74
28630;BME280;15817;42.130;24.762;2022-08-19T01:18:14;99254.13;;;27.48;49.96
28630;BME280;15817;42.130;24.762;2022-08-19T01:20:41;99245.19;;;27.46;50.06
28630;BME280;15817;42.130;24.762;2022-08-19T01:23:08;99259.84;;;27.56;50.14
28630;BME280;15817;42.130;24.762;2022-08-19T01:25:54;99256.97;;;27.58;49.67
28630;BME280;15817;42.130;24.762;2022-08-19T01:28:27;99260.72;;;27.57;49.82
28630;BME280;15817;42.130;24.762;2022-08-19T01:30:53;99263.44;;;27.57;49.79
28630;BME280;15817;42.130;24.762;2022-08-19T01:33:20;99267.41;;;27.53;49.52
28630;BME280;15817;42.130;24.762;2022-08-19T01:35:47;99270.38;;;27.50;49.68
28630;BME280;15817;42.130;24.762;2022-08-19T01:38:24;99273.13;;;27.50;49.80
28630;BME280;15817;42.130;24.762;2022-08-19T01:40:51;99285.03;;;27.60;49.69
28630;BME280;15817;42.130;24.762;2022-08-19T01:43:17;99291.47;;;27.59;49.83
28630;BME280;15817;42.130;24.762;2022-08-19T01:45:45;99285.44;;;27.55;49.72
28630;BME280;15817;42.130;24.762;2022-08-19T01:48:12;99300.19;;;27.53;50.09
28630;BME280;15817;42.130;24.762;2022-08-19T01:50:39;99294.97;;;27.50;49.94
28630;BME280;15817;42.130;24.762;2022-08-19T01:53:07;99293.66;;;27.44;50.13
28630;BME280;15817;42.130;24.762;2022-08-19T01:55:37;99305.28;;;27.46;50.29
28630;BME280;15817;42.130;24.762;2022-08-19T01:58:04;99302.97;;;27.42;50.50
28630;BME280;15817;42.130;24.762;2022-08-19T02:00:32;99301.88;;;27.33;50.33
28630;BME280;15817;42.130;24.762;2022-08-19T02:02:58;99314.53;;;27.34;50.17
28630;BME280;15817;42.130;24.762;2022-08-19T02:05:24;99315.53;;;27.33;50.04
28630;BME280;15817;42.130;24.762;2022-08-19T02:07:50;99314.13;;;27.38;49.40
28630;BME280;15817;42.130;24.762;2022-08-19T02:10:20;99314.16;;;27.27;49.64
28630;BME280;15817;42.130;24.762;2022-08-19T02:12:47;99311.44;;;27.27;49.20
28630;BME280;15817;42.130;24.762;2022-08-19T02:15:15;99317.44;;;27.21;49.39
28630;BME280;15817;42.130;24.762;2022-08-19T02:17:41;99326.22;;;27.25;49.19
28630;BME280;15817;42.130;24.762;2022-08-19T02:20:08;99329.06;;;27.23;49.55
28630;BME280;15817;42.130;24.762;2022-08-19T02:22:34;99339.88;;;27.25;49.55
28630;BME280;15817;42.130;24.762;2022-08-19T02:25:01;99332.44;;;27.16;49.66
28630;BME280;15817;42.130;24.762;2022-08-19T02:27:27;99341.50;;;27.16;49.91
28630;BME280;15817;42.130;24.762;2022-08-19T02:29:53;99318.31;;;27.11;49.80
28630;BME280;15817;42.130;24.762;2022-08-19T02:32:19;99327.75;;;27.07;49.69
28630;BME280;15817;42.130;24.762;2022-08-19T02:34:47;99336.94;;;27.06;50.05
28630;BME280;15817;42.130;24.762;2022-08-19T02:37:13;99330.09;;;27.00;50.26
28630;BME280;15817;42.130;24.762;2022-08-19T02:39:58;99336.41;;;27.00;50.54
28630;BME280;15817;42.130;24.762;2022-08-19T02:42:25;99347.63;;;26.97;50.41
28630;BME280;15817;42.130;24.762;2022-08-19T02:44:51;99354.53;;;27.01;50.31
28630;BME280;15817;42.130;24.762;2022-08-19T02:47:20;99353.44;;;27.04;50.15
28630;BME280;15817;42.130;24.762;2022-08-19T02:49:46;99350.06;;;27.00;50.38
28630;BME280;15817;42.130;24.762;2022-08-19T02:52:15;99345.63;;;26.88;50.78
28630;BME280;15817;42.130;24.762;2022-08-19T02:54:41;99353.28;;;26.83;51.16
28630;BME280;15817;42.130;24.762;2022-08-19T02:57:07;99350.94;;;26.79;51.53
28630;BME280;15817;42.130;24.762;2022-08-19T02:59:33;99357.88;;;26.83;51.83
28630;BME280;15817;42.130;24.762;2022-08-19T03:02:00;99350.94;;;26.79;51.78
28630;BME280;15817;42.130;24.762;2022-08-19T03:04:29;99345.09;;;26.72;52.05
28630;BME280;15817;42.130;24.762;2022-08-19T03:06:55;99358.41;;;26.77;52.28
28630;BME280;15817;42.130;24.762;2022-08-19T03:09:20;99356.03;;;26.72;52.56
28630;BME280;15817;42.130;24.762;2022-08-19T03:11:47;99358.00;;;26.70;52.59
28630;BME280;15817;42.130;24.762;2022-08-19T03:14:13;99359.84;;;26.69;52.82
28630;BME280;15817;42.130;24.762;2022-08-19T03:16:46;99358.88;;;26.59;52.91
28630;BME280;15817;42.130;24.762;2022-08-19T03:19:13;99361.47;;;26.61;53.08
28630;BME280;15817;42.130;24.762;2022-08-19T03:21:43;99369.78;;;26.71;53.18
28630;BME280;15817;42.130;24.762;2022-08-19T03:24:25;99372.75;;;26.67;53.06
28630;BME280;15817;42.130;24.762;2022-08-19T03:27:02;99368.56;;;26.75;52.95
28630;BME280;15817;42.130;24.762;2022-08-19T03:29:31;99361.59;;;26.71;52.56
28630;BME280;15817;42.130;24.762;2022-08-19T03:32:02;99369.78;;;26.71;53.15
28630;BME280;15817;42.130;24.762;2022-08-19T03:34:55;99383.44;;;26.71;53.22
28630;BME280;15817;42.130;24.762;2022-08-19T03:37:35;99376.63;;;26.65;53.86
28630;BME280;15817;42.130;24.762;2022-08-19T03:40:21;99380.34;;;26.64;53.68
28630;BME280;15817;42.130;24.762;2022-08-19T03:42:47;99366.28;;;26.57;53.74
28630;BME280;15817;42.130;24.762;2022-08-19T03:45:13;99375.34;;;26.58;54.31
28630;BME280;15817;42.130;24.762;2022-08-19T03:47:39;99392.81;;;26.55;54.29
28630;BME280;15817;42.130;24.762;2022-08-19T03:50:05;99376.44;;;26.44;53.98
28630;BME280;15817;42.130;24.762;2022-08-19T03:52:34;99384.28;;;26.49;54.36
28630;BME280;15817;42.130;24.762;2022-08-19T03:55:02;99389.50;;;26.52;54.38
28630;BME280;15817;42.130;24.762;2022-08-19T03:57:29;99388.97;;;26.47;54.70
28630;BME280;15817;42.130;24.762;2022-08-19T03:59:58;99383.75;;;26.44;54.78
28630;BME280;15817;42.130;24.762;2022-08-19T04:02:24;99393.31;;;26.49;55.00
28630;BME280;15817;42.130;24.762;2022-08-19T04:04:53;99379.56;;;26.40;55.25
28630;BME280;15817;42.130;24.762;2022-08-19T04:07:20;99386.63;;;26.42;55.66
28630;BME280;15817;42.130;24.762;2022-08-19T04:09:47;99385.41;;;26.22;55.68
28630;BME280;15817;42.130;24.762;2022-08-19T04:12:13;99393.69;;;26.21;56.27
28630;BME280;15817;42.130;24.762;2022-08-19T04:14:40;99393.34;;;26.25;56.18
28630;BME280;15817;42.130;24.762;2022-08-19T04:17:07;99392.50;;;26.25;55.87
28630;BME280;15817;42.130;24.762;2022-08-19T04:19:43;99400.91;;;26.22;55.12
28630;BME280;15817;42.130;24.762;2022-08-19T04:22:09;99395.38;;;26.00;54.97
28630;BME280;15817;42.130;24.762;2022-08-19T04:24:37;99394.56;;;25.86;54.63
28630;BME280;15817;42.130;24.762;2022-08-19T04:27:03;99400.94;;;25.98;54.85
28630;BME280;15817;42.130;24.762;2022-08-19T04:29:31;99385.22;;;26.02;54.75
28630;BME280;15817;42.130;24.762;2022-08-19T04:31:58;99402.50;;;26.13;54.63
28630;BME280;15817;42.130;24.762;2022-08-19T04:34:28;99396.69;;;26.18;54.47
28630;BME280;15817;42.130;24.762;2022-08-19T04:37:05;99397.41;;;26.20;54.33
28630;BME280;15817;42.130;24.762;2022-08-19T04:39:46;99397.94;;;26.25;54.77
28630;BME280;15817;42.130;24.762;2022-08-19T04:42:30;99406.31;;;26.35;54.45
28630;BME280;15817;42.130;24.762;2022-08-19T04:45:16;99407.81;;;26.39;54.21
28630;BME280;15817;42.130;24.762;2022-08-19T04:47:45;99410.50;;;26.27;54.43
28630;BME280;15817;42.130;24.762;2022-08-19T04:50:30;99411.47;;;26.26;54.31
28630;BME280;15817;42.130;24.762;2022-08-19T04:52:56;99399.03;;;26.22;54.59
28630;BME280;15817;42.130;24.762;2022-08-19T04:55:22;99402.41;;;26.26;54.91
28630;BME280;15817;42.130;24.762;2022-08-19T04:57:54;99395.78;;;26.30;55.25
28630;BME280;15817;42.130;24.762;2022-08-19T05:00:23;99408.28;;;26.32;55.71
28630;BME280;15817;42.130;24.762;2022-08-19T05:02:52;99406.06;;;26.38;56.19
28630;BME280;15817;42.130;24.762;2022-08-19T05:05:18;99397.00;;;26.37;56.49
28630;BME280;15817;42.130;24.762;2022-08-19T05:07:45;99401.25;;;26.41;56.82
28630;BME280;15817;42.130;24.762;2022-08-19T05:10:14;99401.09;;;26.43;57.16
28630;BME280;15817;42.130;24.762;2022-08-19T05:15:39;99400.00;;;26.45;56.87
28630;BME280;15817;42.130;24.762;2022-08-19T05:18:10;99407.84;;;26.50;56.64
28630;BME280;15817;42.130;24.762;2022-08-19T05:21:10;99414.75;;;26.54;55.70
28630;BME280;15817;42.130;24.762;2022-08-19T05:24:03;99414.41;;;26.58;55.18
28630;BME280;15817;42.130;24.762;2022-08-19T05:26:36;99409.06;;;26.57;55.02
28630;BME280;15817;42.130;24.762;2022-08-19T05:29:05;99406.97;;;26.60;55.14
28630;BME280;15817;42.130;24.762;2022-08-19T05:31:36;99418.53;;;26.64;54.98
28630;BME280;15817;42.130;24.762;2022-08-19T05:34:04;99403.50;;;26.58;54.38
28630;BME280;15817;42.130;24.762;2022-08-19T05:36:51;99409.72;;;26.60;53.33
28630;BME280;15817;42.130;24.762;2022-08-19T05:39:33;99411.94;;;26.66;52.90
28630;BME280;15817;42.130;24.762;2022-08-19T05:42:11;99410.19;;;26.65;53.28
28630;BME280;15817;42.130;24.762;2022-08-19T05:44:42;99406.75;;;26.63;52.91
28630;BME280;15817;42.130;24.762;2022-08-19T05:47:27;99416.28;;;26.69;52.08
28630;BME280;15817;42.130;24.762;2022-08-19T05:50:06;99411.81;;;26.68;51.85
28630;BME280;15817;42.130;24.762;2022-08-19T05:52:37;99424.13;;;26.74;51.72
28630;BME280;15817;42.130;24.762;2022-08-19T05:55:30;99408.34;;;26.66;51.14
28630;BME280;15817;42.130;24.762;2022-08-19T05:58:08;99414.53;;;26.68;50.78
28630;BME280;15817;42.130;24.762;2022-08-19T06:00:36;99421.97;;;26.66;50.82
28630;BME280;15817;42.130;24.762;2022-08-19T06:03:08;99425.97;;;26.73;50.94
28630;BME280;15817;42.130;24.762;2022-08-19T06:05:52;99425.09;;;26.73;50.36
28630;BME280;15817;42.130;24.762;2022-08-19T06:08:20;99424.34;;;26.71;50.77
28630;BME280;15817;42.130;24.762;2022-08-19T06:10:45;99421.41;;;26.74;50.81
28630;BME280;15817;42.130;24.762;2022-08-19T06:13:11;99434.06;;;26.75;51.15
28630;BME280;15817;42.130;24.762;2022-08-19T06:15:40;99430.19;;;26.77;51.44
28630;BME280;15817;42.130;24.762;2022-08-19T06:18:09;99426.28;;;26.92;51.05
28630;BME280;15817;42.130;24.762;2022-08-19T06:20:35;99431.06;;;26.89;51.09
28630;BME280;15817;42.130;24.762;2022-08-19T06:23:01;99432.97;;;26.88;51.15
28630;BME280;15817;42.130;24.762;2022-08-19T06:25:26;99430.47;;;26.85;51.30
28630;BME280;15817;42.130;24.762;2022-08-19T06:27:58;99427.34;;;26.90;51.45
28630;BME280;15817;42.130;24.762;2022-08-19T06:30:27;99424.88;;;26.87;51.24
28630;BME280;15817;42.130;24.762;2022-08-19T06:32:53;99440.78;;;26.93;51.47
28630;BME280;15817;42.130;24.762;2022-08-19T06:35:19;99424.63;;;26.90;50.80
28630;BME280;15817;42.130;24.762;2022-08-19T06:37:45;99437.72;;;26.97;50.94
28630;BME280;15817;42.130;24.762;2022-08-19T06:40:11;99449.38;;;26.99;50.52
28630;BME280;15817;42.130;24.762;2022-08-19T06:42:38;99439.44;;;26.98;50.64
28630;BME280;15817;42.130;24.762;2022-08-19T06:45:08;99437.59;;;26.99;50.32
28630;BME280;15817;42.130;24.762;2022-08-19T06:47:41;99440.03;;;27.02;50.05
28630;BME280;15817;42.130;24.762;2022-08-19T07:21:30;99422.50;;;27.49;50.24
28630;BME280;15817;42.130;24.762;2022-08-19T07:23:59;99422.66;;;27.59;49.91
28630;BME280;15817;42.130;24.762;2022-08-19T07:26:42;99417.69;;;27.64;49.97
28630;BME280;15817;42.130;24.762;2022-08-19T07:29:20;99416.28;;;27.69;49.62
28630;BME280;15817;42.130;24.762;2022-08-19T07:35:04;99416.88;;;27.84;48.23
28630;BME280;15817;42.130;24.762;2022-08-19T07:37:34;99405.31;;;27.92;48.25
28630;BME280;15817;42.130;24.762;2022-08-19T07:40:20;99411.19;;;28.08;48.28
28630;BME280;15817;42.130;24.762;2022-08-19T07:42:46;99404.56;;;28.22;47.32
28630;BME280;15817;42.130;24.762;2022-08-19T07:45:35;99420.84;;;28.44;46.44
28630;BME280;15817;42.130;24.762;2022-08-19T07:48:09;99401.38;;;28.58;46.01
28630;BME280;15817;42.130;24.762;2022-08-19T07:54:17;99400.19;;;29.02;45.28
28630;BME280;15817;42.130;24.762;2022-08-19T07:56:45;99406.75;;;29.21;44.68
28630;BME280;15817;42.130;24.762;2022-08-19T07:59:15;99399.38;;;29.42;44.02
28630;BME280;15817;42.130;24.762;2022-08-19T08:01:55;99412.13;;;29.72;43.99
28630;BME280;15817;42.130;24.762;2022-08-19T08:04:25;99404.81;;;30.01;43.24
28630;BME280;15817;42.130;24.762;2022-08-19T08:07:10;99407.28;;;30.23;42.49
28630;BME280;15817;42.130;24.762;2022-08-19T08:10:06;99409.13;;;30.52;41.45
28630;BME280;15817;42.130;24.762;2022-08-19T08:12:36;99404.94;;;30.67;40.98
28630;BME280;15817;42.130;24.762;2022-08-19T08:15:13;99404.59;;;30.89;40.50
28630;BME280;15817;42.130;24.762;2022-08-19T08:17:42;99415.34;;;31.20;40.69
28630;BME280;15817;42.130;24.762;2022-08-19T08:20:09;99399.09;;;31.36;39.53
28630;BME280;15817;42.130;24.762;2022-08-19T08:22:43;99395.78;;;31.50;40.01
28630;BME280;15817;42.130;24.762;2022-08-19T08:25:27;99408.84;;;31.76;39.63
28630;BME280;15817;42.130;24.762;2022-08-19T08:27:53;99396.00;;;31.94;38.56
28630;BME280;15817;42.130;24.762;2022-08-19T08:30:50;99400.91;;;32.18;37.90
28630;BME280;15817;42.130;24.762;2022-08-19T08:33:39;99396.06;;;32.37;37.92
28630;BME280;15817;42.130;24.762;2022-08-19T08:36:11;99394.13;;;32.56;37.08
28630;BME280;15817;42.130;24.762;2022-08-19T08:39:01;99383.72;;;32.67;36.92
28630;BME280;15817;42.130;24.762;2022-08-19T08:42:14;99394.34;;;32.80;36.01
28630;BME280;15817;42.130;24.762;2022-08-19T08:44:56;99378.63;;;32.98;36.04
28630;BME280;15817;42.130;24.762;2022-08-19T08:47:25;99376.09;;;33.13;36.07
28630;BME280;15817;42.130;24.762;2022-08-19T08:50:08;99370.72;;;33.29;37.02
28630;BME280;15817;42.130;24.762;2022-08-19T08:52:52;99366.31;;;33.53;35.84
28630;BME280;15817;42.130;24.762;2022-08-19T08:55:27;99378.44;;;33.68;35.65
28630;BME280;15817;42.130;24.762;2022-08-19T09:00:40;99367.97;;;34.04;36.72
28630;BME280;15817;42.130;24.762;2022-08-19T09:03:24;99368.88;;;34.21;33.92
28630;BME280;15817;42.130;24.762;2022-08-19T09:06:25;99365.63;;;34.33;33.85
28630;BME280;15817;42.130;24.762;2022-08-19T09:14:34;99359.72;;;34.77;33.07
28630;BME280;15817;42.130;24.762;2022-08-19T09:17:02;99355.22;;;34.84;32.84
28630;BME280;15817;42.130;24.762;2022-08-19T09:19:29;99358.44;;;35.04;32.26
28630;BME280;15817;42.130;24.762;2022-08-19T09:21:55;99350.44;;;35.25;31.93
28630;BME280;15817;42.130;24.762;2022-08-19T09:24:21;99351.03;;;35.43;31.29
28630;BME280;15817;42.130;24.762;2022-08-19T09:26:49;99351.03;;;35.43;31.25
28630;BME280;15817;42.130;24.762;2022-08-19T09:29:15;99350.50;;;35.48;31.76
28630;BME280;15817;42.130;24.762;2022-08-19T09:31:40;99350.00;;;35.44;31.40
28630;BME280;15817;42.130;24.762;2022-08-19T09:34:07;99339.56;;;35.54;31.31
28630;BME280;15817;42.130;24.762;2022-08-19T09:36:34;99343.63;;;35.67;30.92
28630;BME280;15817;42.130;24.762;2022-08-19T09:39:05;99334.59;;;35.81;30.67
28630;BME280;15817;42.130;24.762;2022-08-19T09:41:32;99333.28;;;35.91;30.96
28630;BME280;15817;42.130;24.762;2022-08-19T09:44:00;99328.13;;;35.88;30.38
28630;BME280;15817;42.130;24.762;2022-08-19T09:46:28;99340.19;;;35.96;30.07
28630;BME280;15817;42.130;24.762;2022-08-19T09:48:58;99327.22;;;35.96;29.69
28630;BME280;15817;42.130;24.762;2022-08-19T09:51:29;99336.38;;;35.97;30.14
28630;BME280;15817;42.130;24.762;2022-08-19T09:53:59;99320.66;;;36.12;29.80
28630;BME280;15817;42.130;24.762;2022-08-19T09:56:27;99323.06;;;36.23;29.60
28630;BME280;15817;42.130;24.762;2022-08-19T09:58:53;99322.16;;;36.45;29.44
28630;BME280;15817;42.130;24.762;2022-08-19T10:01:52;99310.09;;;36.38;29.79
28630;BME280;15817;42.130;24.762;2022-08-19T10:04:24;99302.16;;;36.50;29.89
28630;BME280;15817;42.130;24.762;2022-08-19T10:07:11;99306.31;;;36.54;29.05
28630;BME280;15817;42.130;24.762;2022-08-19T10:09:37;99302.94;;;36.58;28.80
28630;BME280;15817;42.130;24.762;2022-08-19T10:12:07;99303.09;;;36.80;28.81
28630;BME280;15817;42.130;24.762;2022-08-19T10:14:34;99300.59;;;36.85;28.86
28630;BME280;15817;42.130;24.762;2022-08-19T10:17:01;99309.31;;;36.96;28.95
28630;BME280;15817;42.130;24.762;2022-08-19T10:19:28;99297.28;;;36.89;28.47
28630;BME280;15817;42.130;24.762;2022-08-19T10:22:05;99293.25;;;36.92;28.40
28630;BME280;15817;42.130;24.762;2022-08-19T10:24:34;99289.41;;;36.93;28.53
28630;BME280;15817;42.130;24.762;2022-08-19T10:27:00;99282.63;;;36.95;28.41
28630;BME280;15817;42.130;24.762;2022-08-19T10:29:32;99283.09;;;36.99;28.25
28630;BME280;15817;42.130;24.762;2022-08-19T10:32:08;99283.66;;;36.94;27.41
28630;BME280;15817;42.130;24.762;2022-08-19T10:34:39;99272.50;;;37.03;28.26
28630;BME280;15817;42.130;24.762;2022-08-19T10:37:05;99267.31;;;36.99;27.85
28630;BME280;15817;42.130;24.762;2022-08-19T10:39:33;99280.13;;;37.15;28.06
28630;BME280;15817;42.130;24.762;2022-08-19T10:42:07;99267.50;;;37.13;27.65
28630;BME280;15817;42.130;24.762;2022-08-19T10:44:36;99279.28;;;37.15;27.38
28630;BME280;15817;42.130;24.762;2022-08-19T10:47:03;99267.41;;;37.06;28.32
28630;BME280;15817;42.130;24.762;2022-08-19T10:49:29;99271.72;;;37.09;27.76
28630;BME280;15817;42.130;24.762;2022-08-19T10:51:56;99270.84;;;37.08;27.48
28630;BME280;15817;42.130;24.762;2022-08-19T10:54:40;99276.97;;;37.18;27.14
28630;BME280;15817;42.130;24.762;2022-08-19T10:57:35;99269.44;;;37.27;27.04
28630;BME280;15817;42.130;24.762;2022-08-19T11:00:01;99275.09;;;37.40;26.98
28630;BME280;15817;42.130;24.762;2022-08-19T11:02:27;99268.13;;;37.44;26.78
28630;BME280;15817;42.130;24.762;2022-08-19T11:04:53;99259.00;;;37.50;26.48
28630;BME280;15817;42.130;24.762;2022-08-19T11:07:22;99260.13;;;37.56;26.56
28630;BME280;15817;42.130;24.762;2022-08-19T11:09:50;99253.19;;;37.45;26.64
28630;BME280;15817;42.130;24.762;2022-08-19T11:12:16;99250.91;;;37.49;26.85
28630;BME280;15817;42.130;24.762;2022-08-19T11:14:48;99254.72;;;37.48;26.40
28630;BME280;15817;42.130;24.762;2022-08-19T11:17:18;99250.22;;;37.47;27.25
28630;BME280;15817;42.130;24.762;2022-08-19T11:19:44;99251.63;;;37.57;26.41
28630;BME280;15817;42.130;24.762;2022-08-19T11:22:12;99240.03;;;37.54;26.25
28630;BME280;15817;42.130;24.762;2022-08-19T11:24:38;99237.13;;;37.41;25.78
28630;BME280;15817;42.130;24.762;2022-08-19T11:27:10;99246.81;;;37.30;25.01
28630;BME280;15817;42.130;24.762;2022-08-19T11:29:42;99243.94;;;37.38;25.34
28630;BME280;15817;42.130;24.762;2022-08-19T11:32:10;99243.94;;;37.38;26.12
28630;BME280;15817;42.130;24.762;2022-08-19T11:34:36;99237.13;;;37.41;25.05
28630;BME280;15817;42.130;24.762;2022-08-19T11:37:05;99232.72;;;37.46;24.41
28630;BME280;15817;42.130;24.762;2022-08-19T11:39:35;99237.41;;;37.46;24.68
28630;BME280;15817;42.130;24.762;2022-08-19T11:42:06;99237.47;;;37.52;25.40
28630;BME280;15817;42.130;24.762;2022-08-19T11:44:51;99218.69;;;37.54;25.57
28630;BME280;15817;42.130;24.762;2022-08-19T11:47:17;99233.72;;;37.60;26.54
28630;BME280;15817;42.130;24.762;2022-08-19T11:49:46;99239.28;;;37.60;26.25
28630;BME280;15817;42.130;24.762;2022-08-19T11:52:12;99226.44;;;37.59;26.63
28630;BME280;15817;42.130;24.762;2022-08-19T11:54:38;99213.16;;;37.54;26.58
28630;BME280;15817;42.130;24.762;2022-08-19T11:57:04;99214.47;;;37.58;26.13
28630;BME280;15817;42.130;24.762;2022-08-19T11:59:33;99214.09;;;37.61;26.16
28630;BME280;15817;42.130;24.762;2022-08-19T12:01:59;99214.75;;;37.63;26.00
28630;BME280;15817;42.130;24.762;2022-08-19T12:04:24;99215.53;;;37.57;25.29
28630;BME280;15817;42.130;24.762;2022-08-19T12:06:53;99216.53;;;37.50;25.68
28630;BME280;15817;42.130;24.762;2022-08-19T12:09:23;99206.59;;;37.41;24.89
28630;BME280;15817;42.130;24.762;2022-08-19T12:11:48;99208.13;;;37.43;25.24
28630;BME280;15817;42.130;24.762;2022-08-19T12:14:16;99203.09;;;37.32;25.35
28630;BME280;15817;42.130;24.762;2022-08-19T12:16:44;99204.75;;;37.26;25.92
28630;BME280;15817;42.130;24.762;2022-08-19T12:19:11;99194.97;;;37.30;26.35
28630;BME280;15817;42.130;24.762;2022-08-19T12:21:37;99185.00;;;37.36;26.24
28630;BME280;15817;42.130;24.762;2022-08-19T12:24:05;99181.81;;;37.39;26.07
28630;BME280;15817;42.130;24.762;2022-08-19T12:26:35;99180.38;;;37.43;26.14
28630;BME280;15817;42.130;24.762;2022-08-19T12:29:16;99176.75;;;37.43;26.50
28630;BME280;15817;42.130;24.762;2022-08-19T12:31:45;99181.72;;;37.47;26.34
28630;BME280;15817;42.130;24.762;2022-08-19T12:34:14;99176.75;;;37.43;26.49
28630;BME280;15817;42.130;24.762;2022-08-19T12:36:39;99180.19;;;37.45;25.77
28630;BME280;15817;42.130;24.762;2022-08-19T12:39:05;99175.34;;;37.32;25.87
28630;BME280;15817;42.130;24.762;2022-08-19T12:41:33;99183.44;;;37.27;25.92
28630;BME280;15817;42.130;24.762;2022-08-19T12:44:16;99169.47;;;37.20;26.12
28630;BME280;15817;42.130;24.762;2022-08-19T12:46:49;99164.09;;;37.19;26.20
28630;BME280;15817;42.130;24.762;2022-08-19T12:49:17;99172.44;;;37.19;25.35
28630;BME280;15817;42.130;24.762;2022-08-19T12:51:46;99172.34;;;37.12;25.60
28630;BME280;15817;42.130;24.762;2022-08-19T12:54:12;99178.16;;;37.17;26.42
28630;BME280;15817;42.130;24.762;2022-08-19T12:56:38;99171.56;;;37.18;25.65
28630;BME280;15817;42.130;24.762;2022-08-19T12:59:04;99174.34;;;37.18;25.29
28630;BME280;15817;42.130;24.762;2022-08-19T13:01:30;99160.38;;;37.12;25.52
28630;BME280;15817;42.130;24.762;2022-08-19T13:03:58;99163.16;;;37.12;26.02
28630;BME280;15817;42.130;24.762;2022-08-19T13:06:25;99158.75;;;37.17;25.73
28630;BME280;15817;42.130;24.762;2022-08-19T13:08:51;99159.81;;;37.16;27.03
28630;BME280;15817;42.130;24.762;2022-08-19T13:11:20;99153.78;;;37.13;26.75
28630;BME280;15817;42.130;24.762;2022-08-19T13:13:49;99161.72;;;37.16;26.57
28630;BME280;15817;42.130;24.762;2022-08-19T13:16:17;99151.19;;;37.11;26.41
28630;BME280;15817;42.130;24.762;2022-08-19T13:18:45;99143.00;;;37.03;26.32
28630;BME280;15817;42.130;24.762;2022-08-19T13:21:21;99146.38;;;36.98;26.41
28630;BME280;15817;42.130;24.762;2022-08-19T13:23:48;99158.22;;;36.92;26.00
28630;BME280;15817;42.130;24.762;2022-08-19T13:26:15;99160.16;;;36.92;26.49
28630;BME280;15817;42.130;24.762;2022-08-19T13:28:42;99150.69;;;36.86;25.89
28630;BME280;15817;42.130;24.762;2022-08-19T13:31:28;99152.22;;;36.89;26.23
28630;BME280;15817;42.130;24.762;2022-08-19T13:34:13;99144.28;;;36.86;25.37
28630;BME280;15817;42.130;24.762;2022-08-19T13:36:40;99144.66;;;36.83;26.21
28630;BME280;15817;42.130;24.762;2022-08-19T13:39:07;99137.06;;;36.70;25.94
28630;BME280;15817;42.130;24.762;2022-08-19T13:41:42;99131.88;;;36.67;26.25
28630;BME280;15817;42.130;24.762;2022-08-19T13:44:11;99134.94;;;36.72;25.76
28630;BME280;15817;42.130;24.762;2022-08-19T13:46:38;99136.09;;;36.63;25.87
28630;BME280;15817;42.130;24.762;2022-08-19T13:49:13;99135.91;;;36.64;26.28
28630;BME280;15817;42.130;24.762;2022-08-19T13:51:43;99131.78;;;36.60;26.51
28630;BME280;15817;42.130;24.762;2022-08-19T13:54:09;99128.16;;;36.60;26.92
28630;BME280;15817;42.130;24.762;2022-08-19T13:56:43;99123.47;;;36.60;26.42
28630;BME280;15817;42.130;24.762;2022-08-19T13:59:10;99129.44;;;36.57;26.99